createdAt,value
2023-04-19T00:02:16.880Z,17.73
2023-04-19T00:04:47.755Z,19.63
2023-04-19T00:07:15.116Z,16.92
2023-04-19T00:09:42.467Z,14.23
2023-04-19T00:12:09.843Z,15.70
2023-04-19T00:14:37.122Z,15.95
2023-04-19T00:17:04.613Z,15.05
2023-04-19T00:19:32.088Z,15.80
2023-04-19T00:21:59.394Z,14.55
2023-04-19T00:24:26.729Z,11.50
2023-04-19T00:26:54.072Z,14.18
2023-04-19T00:29:21.442Z,14.98
2023-04-19T00:31:49.011Z,11.63
2023-04-19T00:34:16.597Z,11.85
2023-04-19T00:36:44.133Z,11.23
2023-04-19T00:39:12.943Z,11.63
2023-04-19T00:41:40.238Z,12.00
2023-04-19T00:44:07.630Z,10.10
2023-04-19T00:46:36.416Z,10.32
2023-04-19T00:49:03.985Z,12.50
2023-04-19T00:51:34.037Z,11.82
2023-04-19T00:54:03.225Z,12.07
2023-04-19T00:56:30.879Z,10.82
2023-04-19T00:58:59.678Z,15.20
2023-04-19T01:01:27.094Z,12.10
2023-04-19T01:03:54.878Z,12.77
2023-04-19T01:06:22.186Z,11.82
2023-04-19T01:08:49.493Z,7.72
2023-04-19T01:11:16.773Z,12.25
2023-04-19T01:13:45.659Z,12.20
2023-04-19T01:16:13.123Z,12.25
2023-04-19T01:18:40.740Z,16.13
2023-04-19T01:21:08.934Z,14.88
2023-04-19T01:23:36.866Z,10.05
2023-04-19T01:26:04.272Z,11.75
2023-04-19T01:28:32.211Z,16.48
2023-04-19T01:30:59.670Z,11.70
2023-04-19T01:33:27.227Z,11.13
2023-04-19T01:35:54.700Z,11.93
2023-04-19T01:38:22.007Z,12.02
2023-04-19T01:40:49.503Z,10.77
2023-04-19T01:43:18.517Z,10.48
2023-04-19T01:45:46.270Z,11.82
2023-04-19T01:48:13.997Z,11.82
2023-04-19T01:50:41.351Z,11.63
2023-04-19T01:53:08.722Z,10.13
2023-04-19T01:55:36.029Z,11.40
2023-04-19T01:58:03.442Z,11.88
2023-04-19T02:00:30.935Z,13.50
2023-04-19T02:02:58.768Z,10.65
2023-04-19T02:05:26.203Z,14.10
2023-04-19T02:07:54.464Z,14.63
2023-04-19T02:10:21.846Z,15.90
2023-04-19T02:12:49.139Z,11.85
2023-04-19T02:15:16.472Z,14.10
2023-04-19T02:17:44.095Z,13.25
2023-04-19T02:20:11.480Z,11.68
2023-04-19T02:22:38.974Z,14.80
2023-04-19T02:25:06.945Z,11.68
2023-04-19T02:27:34.282Z,11.38
2023-04-19T02:30:02.048Z,14.63
2023-04-19T02:32:31.972Z,10.25
2023-04-19T02:34:59.380Z,12.82
2023-04-19T02:37:26.688Z,16.20
2023-04-19T02:39:57.696Z,12.93
2023-04-19T02:42:24.991Z,12.27
2023-04-19T02:44:54.416Z,11.98
2023-04-19T02:47:25.059Z,13.43
2023-04-19T02:49:52.705Z,11.00
2023-04-19T02:52:20.583Z,12.05
2023-04-19T02:54:48.204Z,13.10
2023-04-19T02:57:15.711Z,12.05
2023-04-19T02:59:44.080Z,12.25
2023-04-19T03:02:11.376Z,13.18
2023-04-19T03:04:38.701Z,13.63
2023-04-19T03:07:08.369Z,11.82
2023-04-19T03:09:36.342Z,14.82
2023-04-19T03:12:05.276Z,14.18
2023-04-19T03:14:34.042Z,13.98
2023-04-19T03:17:01.516Z,16.88
2023-04-19T03:19:29.151Z,20.90
2023-04-19T03:21:56.546Z,17.95
2023-04-19T03:24:30.760Z,19.13
2023-04-19T03:27:02.590Z,15.98
2023-04-19T03:29:31.283Z,20.90
2023-04-19T03:32:05.561Z,16.70
2023-04-19T03:34:32.928Z,17.45
2023-04-19T03:37:00.423Z,19.25
2023-04-19T03:39:28.227Z,17.05
2023-04-19T03:42:01.544Z,19.17
2023-04-19T03:45:01.161Z,18.40
2023-04-19T03:47:31.011Z,19.40
2023-04-19T03:49:59.154Z,22.52
2023-04-19T03:52:27.707Z,18.17
2023-04-19T03:54:55.128Z,20.35
2023-04-19T03:57:40.914Z,21.08
2023-04-19T04:00:20.292Z,20.55
2023-04-19T04:02:54.599Z,22.03
2023-04-19T04:05:22.950Z,18.65
2023-04-19T04:07:50.499Z,19.83
2023-04-19T04:10:18.988Z,20.20
2023-04-19T04:12:46.906Z,19.77
2023-04-19T04:15:24.142Z,22.35
2023-04-19T04:17:54.014Z,20.70
2023-04-19T04:20:21.825Z,19.33
2023-04-19T04:22:51.429Z,16.83
2023-04-19T04:25:23.040Z,16.27
2023-04-19T04:27:54.467Z,14.35
2023-04-19T04:30:25.883Z,15.65
2023-04-19T04:32:58.085Z,14.52
2023-04-19T04:35:26.168Z,14.63
2023-04-19T04:37:59.859Z,14.82
2023-04-19T04:40:27.783Z,17.90
2023-04-19T04:42:55.261Z,15.82
2023-04-19T04:46:01.028Z,16.05
2023-04-19T04:48:34.080Z,12.23
2023-04-19T04:51:01.636Z,10.63
2023-04-19T04:53:29.977Z,10.93
2023-04-19T04:55:58.029Z,10.48
2023-04-19T04:58:25.435Z,12.10
2023-04-19T05:01:01.177Z,10.93
2023-04-19T05:03:29.496Z,12.73
2023-04-19T05:05:59.571Z,11.48
2023-04-19T05:08:27.832Z,10.82
2023-04-19T05:11:00.164Z,16.08
2023-04-19T05:13:31.587Z,15.18
2023-04-19T05:16:00.305Z,10.60
2023-04-19T05:18:27.904Z,11.15
2023-04-19T05:20:56.824Z,15.68
2023-04-19T05:23:27.895Z,9.63
2023-04-19T05:25:55.310Z,7.32
2023-04-19T05:28:24.817Z,10.85
2023-04-19T05:31:08.099Z,6.95
2023-04-19T05:33:44.630Z,5.15
2023-04-19T05:36:13.160Z,6.25
2023-04-19T05:38:40.481Z,6.55
2023-04-19T05:41:08.015Z,5.78
2023-04-19T05:43:35.433Z,6.38
2023-04-19T05:46:03.701Z,9.23
2023-04-19T05:48:31.039Z,8.05
2023-04-19T05:51:25.100Z,7.88
2023-04-19T05:54:01.471Z,7.38
2023-04-19T05:56:29.694Z,7.97
2023-04-19T05:58:57.090Z,5.22
2023-04-19T06:01:24.786Z,6.22
2023-04-19T06:03:54.419Z,7.47
2023-04-19T06:06:25.625Z,4.93
2023-04-19T06:08:54.851Z,4.85
2023-04-19T06:11:26.888Z,4.95
2023-04-19T06:13:56.623Z,6.07
2023-04-19T06:16:24.310Z,8.85
2023-04-19T06:18:51.858Z,4.20
2023-04-19T06:21:19.113Z,7.18
2023-04-19T06:23:46.576Z,5.20
2023-04-19T06:26:14.084Z,4.38
2023-04-19T06:28:41.372Z,9.27
2023-04-19T06:31:08.702Z,5.32
2023-04-19T06:33:36.250Z,3.95
2023-04-19T06:36:04.180Z,5.78
2023-04-19T06:38:31.794Z,5.22
2023-04-19T06:40:59.861Z,5.82
2023-04-19T06:43:27.731Z,8.32
2023-04-19T06:46:04.957Z,10.63
2023-04-19T06:48:57.891Z,3.95
2023-04-19T06:51:40.473Z,9.25
2023-04-19T06:54:08.345Z,8.65
2023-04-19T06:56:45.980Z,6.03
2023-04-19T07:02:42.098Z,4.80
2023-04-19T07:07:14.127Z,7.25
2023-04-19T07:08:24.992Z,6.97
2023-04-19T07:10:54.045Z,6.93
2023-04-19T07:13:21.467Z,6.75
2023-04-19T07:15:48.800Z,9.68
2023-04-19T07:18:16.215Z,8.75
2023-04-19T07:20:46.623Z,9.23
2023-04-19T07:23:14.157Z,5.55
2023-04-19T07:25:41.454Z,4.03
2023-04-19T07:28:08.942Z,5.70
2023-04-19T07:30:36.812Z,4.60
2023-04-19T07:33:05.376Z,4.32
2023-04-19T07:35:32.799Z,4.57
2023-04-19T07:38:00.114Z,5.80
2023-04-19T07:40:27.486Z,3.38
2023-04-19T07:42:56.570Z,5.30
2023-04-19T07:45:24.426Z,5.75
2023-04-19T07:47:51.714Z,5.20
2023-04-19T07:50:19.731Z,4.20
2023-04-19T07:52:48.161Z,8.15
2023-04-19T07:55:15.505Z,3.95
2023-04-19T07:57:46.132Z,6.90
2023-04-19T08:00:21.855Z,4.90
2023-04-19T08:02:50.067Z,4.80
2023-04-19T08:05:31.487Z,5.95
2023-04-19T08:07:59.307Z,5.13
2023-04-19T08:10:33.914Z,7.28
2023-04-19T08:13:05.684Z,4.70
2023-04-19T08:18:07.846Z,2.78
2023-04-19T08:20:36.664Z,5.32
2023-04-19T08:23:18.033Z,5.93
2023-04-19T08:25:49.032Z,5.68
2023-04-19T08:28:17.059Z,7.05
2023-04-19T08:30:44.764Z,4.95
2023-04-19T08:33:12.562Z,5.68
2023-04-19T08:35:45.784Z,7.35
2023-04-19T08:38:13.262Z,7.30
2023-04-19T08:40:50.435Z,6.35
2023-04-19T08:43:19.211Z,4.72
2023-04-19T08:45:51.225Z,5.35
2023-04-19T08:48:19.078Z,5.80
2023-04-19T08:51:00.726Z,4.82
2023-04-19T08:53:34.314Z,5.82
2023-04-19T09:01:12.803Z,4.43
2023-04-19T09:03:59.448Z,9.15
2023-04-19T09:06:35.319Z,7.80
2023-04-19T09:11:52.953Z,4.97
2023-04-19T09:14:22.003Z,6.93
2023-04-19T09:16:52.014Z,8.43
2023-04-19T09:19:24.918Z,5.70
2023-04-19T09:21:54.750Z,7.55
2023-04-19T09:27:12.354Z,5.72
2023-04-19T09:29:40.036Z,8.80
2023-04-19T09:32:07.752Z,4.65
2023-04-19T09:34:35.113Z,6.75
2023-04-19T09:37:22.846Z,6.65
2023-04-19T09:40:21.157Z,7.57
2023-04-19T09:45:29.648Z,7.93
2023-04-19T09:48:03.868Z,6.43
2023-04-19T09:50:32.214Z,4.80
2023-04-19T09:53:01.811Z,8.73
2023-04-19T09:55:35.904Z,4.65
2023-04-19T09:58:12.442Z,5.85
2023-04-19T10:00:47.844Z,6.65
2023-04-19T10:03:18.719Z,13.98
2023-04-19T10:05:46.538Z,8.70
2023-04-19T10:08:14.966Z,7.28
2023-04-19T10:10:45.577Z,5.25
2023-04-19T10:15:51.057Z,4.15
2023-04-19T10:18:21.510Z,9.93
2023-04-19T10:21:06.614Z,7.07
2023-04-19T10:23:54.319Z,5.95
2023-04-19T10:26:22.863Z,5.32
2023-04-19T10:28:50.607Z,6.22
2023-04-19T10:31:23.650Z,8.82
2023-04-19T10:33:51.706Z,4.05
2023-04-19T10:36:38.523Z,7.85
2023-04-19T10:39:42.997Z,4.22
2023-04-19T10:42:12.694Z,6.55
2023-04-19T10:44:40.039Z,10.02
2023-04-19T10:47:07.846Z,4.28
2023-04-19T10:49:47.409Z,5.75
2023-04-19T10:52:29.576Z,4.32
2023-04-19T10:54:57.414Z,4.20
2023-04-19T10:57:25.341Z,4.90
2023-04-19T11:00:18.337Z,5.97
2023-04-19T11:02:45.923Z,6.65
2023-04-19T11:05:14.450Z,5.28
2023-04-19T11:07:42.161Z,6.32
2023-04-19T11:10:11.554Z,3.50
2023-04-19T11:12:43.632Z,4.53
2023-04-19T11:15:24.099Z,8.73
2023-04-19T11:18:08.992Z,4.75
2023-04-19T11:20:42.566Z,7.68
2023-04-19T11:23:17.965Z,6.35
2023-04-19T11:25:46.301Z,2.90
2023-04-19T11:28:17.568Z,3.80
2023-04-19T11:30:46.307Z,5.00
2023-04-19T11:33:13.777Z,7.10
2023-04-19T11:35:43.558Z,4.72
2023-04-19T11:38:17.559Z,5.88
2023-04-19T11:40:45.219Z,7.00
2023-04-19T11:43:12.732Z,4.75
2023-04-19T11:45:40.476Z,7.60
2023-04-19T11:48:17.537Z,4.20
2023-04-19T11:50:45.743Z,5.28
2023-04-19T11:53:17.374Z,7.13
2023-04-19T11:55:46.312Z,4.38
2023-04-19T11:58:31.076Z,4.35
2023-04-19T12:01:19.666Z,7.18
2023-04-19T12:03:50.341Z,3.17
2023-04-19T12:06:34.250Z,4.63
2023-04-19T12:09:07.736Z,4.65
2023-04-19T12:12:40.429Z,7.03
2023-04-19T12:17:29.527Z,6.57
2023-04-19T12:19:56.966Z,5.88
2023-04-19T12:22:24.417Z,4.60
2023-04-19T12:24:53.503Z,8.60
2023-04-19T12:27:20.951Z,6.78
2023-04-19T12:29:48.366Z,4.63
2023-04-19T12:32:16.031Z,7.82
2023-04-19T12:34:43.609Z,9.75
2023-04-19T12:37:11.047Z,8.05
2023-04-19T12:39:38.351Z,8.43
2023-04-19T12:42:06.338Z,5.15
2023-04-19T12:44:33.645Z,3.40
2023-04-19T12:47:00.983Z,3.33
2023-04-19T12:49:28.911Z,6.88
2023-04-19T12:51:57.594Z,4.43
2023-04-19T12:54:25.171Z,4.88
2023-04-19T12:56:53.101Z,7.30
2023-04-19T12:59:22.047Z,5.57
2023-04-19T13:02:00.774Z,7.53
2023-04-19T13:04:28.315Z,8.75
2023-04-19T13:06:55.755Z,3.88
2023-04-19T13:09:25.991Z,7.20
2023-04-19T13:11:54.664Z,4.10
2023-04-19T13:14:22.176Z,4.03
2023-04-19T13:16:49.772Z,5.75
2023-04-19T13:19:17.098Z,8.35
2023-04-19T13:21:45.177Z,7.28
2023-04-19T13:24:12.814Z,6.28
2023-04-19T13:26:41.516Z,8.13
2023-04-19T13:29:08.927Z,7.10
2023-04-19T13:31:36.315Z,3.95
2023-04-19T13:34:03.773Z,10.90
2023-04-19T13:36:31.350Z,6.82
2023-04-19T13:38:59.830Z,4.72
2023-04-19T13:41:27.158Z,8.05
2023-04-19T13:43:54.494Z,6.20
2023-04-19T13:46:21.872Z,7.68
2023-04-19T13:49:19.976Z,9.00
2023-04-19T13:52:17.603Z,8.23
2023-04-19T13:54:45.352Z,9.55
2023-04-19T13:57:12.709Z,8.93
2023-04-19T13:59:40.352Z,11.55
2023-04-19T14:02:07.839Z,6.45
2023-04-19T14:04:35.372Z,6.63
2023-04-19T14:07:02.735Z,6.55
2023-04-19T14:09:32.934Z,7.22
2023-04-19T14:12:02.546Z,4.72
2023-04-19T14:14:31.986Z,9.15
2023-04-19T14:16:59.937Z,7.00
2023-04-19T14:19:27.261Z,6.32
2023-04-19T14:21:55.447Z,7.82
2023-04-19T14:24:22.790Z,6.65
2023-04-19T14:27:03.190Z,6.53
2023-04-19T14:29:49.294Z,11.02
2023-04-19T14:32:25.936Z,6.32
2023-04-19T14:34:55.228Z,6.65
2023-04-19T14:37:24.256Z,8.55
2023-04-19T14:39:51.795Z,12.32
2023-04-19T14:46:30.441Z,7.30
2023-04-19T14:49:03.305Z,7.25
2023-04-19T14:51:31.647Z,7.00
2023-04-19T14:54:02.012Z,3.85
2023-04-19T14:56:29.364Z,4.47
2023-04-19T14:58:56.777Z,5.88
2023-04-19T15:01:24.321Z,4.25
2023-04-19T15:03:51.987Z,4.88
2023-04-19T15:06:19.573Z,4.28
2023-04-19T15:08:47.008Z,5.78
2023-04-19T15:11:14.362Z,6.43
2023-04-19T15:13:41.675Z,5.35
2023-04-19T15:16:09.467Z,6.43
2023-04-19T15:18:37.020Z,8.00
2023-04-19T15:21:05.150Z,4.50
2023-04-19T15:23:32.484Z,6.30
2023-04-19T15:25:59.794Z,5.05
2023-04-19T15:28:27.177Z,5.80
2023-04-19T15:31:02.512Z,7.05
2023-04-19T15:33:30.127Z,6.15
2023-04-19T15:35:58.332Z,7.20
2023-04-19T15:38:28.405Z,5.43
2023-04-19T15:40:57.885Z,5.68
2023-04-19T15:46:14.571Z,5.68
2023-04-19T15:48:43.956Z,5.72
2023-04-19T15:51:17.040Z,5.93
2023-04-19T15:53:45.131Z,10.02
2023-04-19T15:56:12.488Z,8.00
2023-04-19T15:58:39.932Z,6.53
2023-04-19T16:01:13.614Z,5.40
2023-04-19T16:03:41.811Z,9.15
2023-04-19T16:06:09.733Z,6.45
2023-04-19T16:08:37.175Z,8.20
2023-04-19T16:11:06.898Z,7.72
2023-04-19T16:13:35.141Z,6.15
2023-04-19T16:16:02.405Z,6.32
2023-04-19T16:18:29.749Z,7.22
2023-04-19T16:20:57.023Z,6.55
2023-04-19T16:23:25.084Z,5.28
2023-04-19T16:25:53.411Z,8.50
2023-04-19T16:28:22.158Z,6.00
2023-04-19T16:30:49.611Z,6.75
2023-04-19T16:33:16.969Z,5.90
2023-04-19T16:35:44.725Z,6.75
2023-04-19T16:38:12.022Z,6.28
2023-04-19T16:40:39.324Z,6.90
2023-04-19T16:43:06.726Z,6.95
2023-04-19T16:45:34.300Z,6.25
2023-04-19T16:48:01.889Z,9.10
2023-04-19T16:50:29.412Z,4.95
2023-04-19T16:52:56.700Z,8.70
2023-04-19T16:55:24.027Z,6.80
2023-04-19T16:57:53.604Z,5.93
2023-04-19T17:00:21.894Z,7.18
2023-04-19T17:02:49.338Z,7.60
2023-04-19T17:05:16.842Z,5.57
2023-04-19T17:07:44.667Z,7.65
2023-04-19T17:10:12.750Z,7.70
2023-04-19T17:12:41.052Z,7.53
2023-04-19T17:15:08.695Z,6.18
2023-04-19T17:17:37.133Z,8.20
2023-04-19T17:20:06.126Z,8.27
2023-04-19T17:22:33.508Z,7.03
2023-04-19T17:25:02.282Z,11.90
2023-04-19T17:27:29.675Z,7.47
2023-04-19T17:29:56.997Z,7.68
2023-04-19T17:32:24.249Z,8.68
2023-04-19T17:34:51.592Z,7.50
2023-04-19T17:37:18.930Z,7.68
2023-04-19T17:39:46.336Z,9.40
2023-04-19T17:42:13.625Z,8.00
2023-04-19T17:44:41.028Z,7.30
2023-04-19T17:47:08.356Z,11.60
2023-04-19T17:49:35.753Z,10.43
2023-04-19T17:52:03.093Z,8.15
2023-04-19T17:54:30.498Z,7.93
2023-04-19T17:56:59.398Z,8.73
2023-04-19T17:59:26.741Z,8.40
2023-04-19T18:01:54.229Z,7.43
2023-04-19T18:04:21.872Z,9.93
2023-04-19T18:06:49.425Z,7.03
2023-04-19T18:09:20.187Z,7.97
2023-04-19T18:11:47.966Z,7.25
2023-04-19T18:14:15.431Z,13.43
2023-04-19T18:16:42.800Z,9.20
2023-04-19T18:19:10.207Z,5.60
2023-04-19T18:21:37.690Z,8.45
2023-04-19T18:24:05.694Z,6.60
2023-04-19T18:26:40.928Z,9.18
2023-04-19T18:31:38.979Z,6.05
2023-04-19T18:34:06.304Z,8.48
2023-04-19T18:36:33.816Z,6.35
2023-04-19T18:39:01.066Z,7.60
2023-04-19T18:41:28.366Z,12.98
2023-04-19T18:44:24.872Z,6.60
2023-04-19T18:46:43.117Z,10.10
2023-04-19T18:49:10.458Z,8.02
2023-04-19T18:51:38.365Z,8.88
2023-04-19T18:54:05.812Z,6.28
2023-04-19T18:57:10.892Z,5.43
2023-04-19T18:59:20.686Z,6.55
2023-04-19T19:01:51.467Z,5.03
2023-04-19T19:04:42.637Z,6.55
2023-04-19T19:07:23.054Z,7.78
2023-04-19T19:10:01.624Z,7.07
2023-04-19T19:12:39.819Z,8.40
2023-04-19T19:15:11.799Z,7.13
2023-04-19T19:17:42.784Z,7.05
2023-04-19T19:20:11.188Z,7.20
2023-04-19T19:22:39.940Z,7.35
2023-04-19T19:25:12.337Z,5.97
2023-04-19T19:27:40.302Z,8.85
2023-04-19T19:30:08.595Z,5.40
2023-04-19T19:32:36.514Z,8.13
2023-04-19T19:35:08.248Z,7.93
2023-04-19T19:37:40.441Z,8.18
2023-04-19T19:40:11.414Z,6.20
2023-04-19T19:42:39.608Z,5.88
2023-04-19T19:45:08.613Z,6.93
2023-04-19T19:47:43.147Z,9.88
2023-04-19T19:51:01.050Z,9.13
2023-04-19T19:53:03.238Z,8.52
2023-04-19T19:55:31.107Z,7.35
2023-04-19T20:00:44.972Z,6.65
2023-04-19T20:03:14.262Z,7.68
2023-04-19T20:05:49.640Z,7.70
2023-04-19T20:08:17.285Z,7.07
2023-04-19T20:10:44.765Z,7.10
2023-04-19T20:13:13.403Z,7.03
2023-04-19T20:15:41.601Z,8.50
2023-04-19T20:18:10.312Z,7.90
2023-04-19T20:20:38.019Z,5.68
2023-04-19T20:23:05.921Z,8.05
2023-04-19T20:25:33.433Z,6.30
2023-04-19T20:28:01.964Z,7.63
2023-04-19T20:30:29.306Z,6.47
2023-04-19T20:32:56.928Z,6.53
2023-04-19T20:35:24.523Z,7.57
2023-04-19T20:37:51.936Z,6.82
2023-04-19T20:40:19.400Z,8.20
2023-04-19T20:42:46.963Z,6.80
2023-04-19T20:45:14.499Z,6.10
2023-04-19T20:47:42.729Z,10.18
2023-04-19T20:50:11.093Z,8.45
2023-04-19T20:52:38.844Z,6.93
2023-04-19T20:55:07.076Z,8.45
2023-04-19T20:57:34.571Z,10.77
2023-04-19T21:00:01.908Z,12.45
2023-04-19T21:02:29.399Z,11.07
2023-04-19T21:04:56.819Z,9.82
2023-04-19T21:07:24.159Z,8.80
2023-04-19T21:13:23.149Z,5.97
2023-04-19T21:15:50.939Z,5.97
2023-04-19T21:18:18.229Z,8.10
2023-04-19T21:20:45.607Z,7.60
2023-04-19T21:23:12.940Z,6.28
2023-04-19T21:25:40.309Z,9.27
2023-04-19T21:28:08.220Z,7.55
2023-04-19T21:30:40.685Z,7.63
2023-04-19T21:33:08.189Z,7.57
2023-04-19T21:35:35.771Z,6.82
2023-04-19T21:38:03.257Z,7.28
2023-04-19T21:40:30.677Z,7.00
2023-04-19T21:42:57.969Z,6.78
2023-04-19T21:45:25.361Z,9.15
2023-04-19T21:47:52.701Z,6.85
2023-04-19T21:50:20.198Z,5.28
2023-04-19T21:52:47.435Z,8.73
2023-04-19T21:55:14.757Z,8.10
2023-04-19T21:57:42.037Z,7.28
2023-04-19T22:00:10.105Z,6.32
2023-04-19T22:02:37.505Z,6.90
2023-04-19T22:05:07.248Z,6.20
2023-04-19T22:07:38.040Z,5.68
2023-04-19T22:10:06.538Z,6.32
2023-04-19T22:12:34.119Z,6.75
2023-04-19T22:15:02.311Z,7.05
2023-04-19T22:17:30.301Z,5.55
2023-04-19T22:19:59.010Z,5.53
2023-04-19T22:22:26.539Z,8.15
2023-04-19T22:24:58.065Z,6.93
2023-04-19T22:27:25.836Z,7.32
2023-04-19T22:29:53.461Z,6.03
2023-04-19T22:32:20.724Z,6.70
2023-04-19T22:34:48.063Z,7.07
2023-04-19T22:37:15.481Z,6.28
2023-04-19T22:39:42.814Z,6.40
2023-04-19T22:42:10.195Z,6.00
2023-04-19T22:44:37.490Z,6.90
2023-04-19T22:47:04.926Z,6.82
2023-04-19T22:49:32.950Z,6.03
2023-04-19T22:52:00.302Z,5.15
2023-04-19T22:54:27.605Z,6.88
2023-04-19T22:56:54.952Z,5.82
2023-04-19T22:59:22.230Z,4.40
2023-04-19T23:01:49.584Z,5.43
2023-04-19T23:04:17.386Z,5.47
2023-04-19T23:06:45.322Z,4.70
2023-04-19T23:09:13.922Z,5.18
2023-04-19T23:11:41.486Z,5.15
2023-04-19T23:14:10.369Z,5.30
2023-04-19T23:16:41.236Z,5.57
2023-04-19T23:19:09.521Z,5.45
2023-04-19T23:21:37.260Z,4.70
2023-04-19T23:24:04.884Z,4.22
2023-04-19T23:26:32.153Z,4.65
2023-04-19T23:28:59.787Z,4.90
2023-04-19T23:31:27.170Z,6.68
2023-04-19T23:33:54.472Z,4.30
2023-04-19T23:36:21.722Z,5.07
2023-04-19T23:38:49.000Z,5.50
2023-04-19T23:41:16.301Z,5.70
2023-04-19T23:43:46.269Z,6.43
2023-04-19T23:46:13.639Z,6.68
2023-04-19T23:48:41.153Z,5.25
2023-04-19T23:51:08.475Z,5.45
2023-04-19T23:53:35.974Z,5.15
2023-04-19T23:56:03.337Z,5.65
2023-04-19T23:58:30.848Z,6.38
